Time;durP1;ratioP1;P1;durP2;ratioP2;P2;SDS_P1;SDS_P2;PMS_P1;PMS_P2;Temp;Humidity;BMP_temperature;BMP_pressure;BME280_temperature;BME280_humidity;BME280_pressure;Samples;Min_cycle;Max_cycle;Signal;HPM_P1;HPM_P2
2023/09/25 00:02:04;;;;;;;3.33;1.33;;;;;;;11.99;100.00;101944.19;4843046;29;20038;-90
2023/09/25 00:04:32;;;;;;;2.22;1.20;;;;;;;11.95;100.00;101945.66;4843911;29;20034;-90
2023/09/25 00:06:57;;;;;;;3.08;1.40;;;;;;;11.93;100.00;101943.97;4842724;29;20049;-90
2023/09/25 00:09:23;;;;;;;2.50;1.20;;;;;;;11.96;100.00;101950.03;4843337;29;20386;-90
2023/09/25 00:11:48;;;;;;;2.33;1.17;;;;;;;11.92;100.00;101947.69;4843487;29;20103;-92
2023/09/25 00:14:14;;;;;;;2.00;1.20;;;;;;;11.89;100.00;101945.38;4843455;29;20033;-90
2023/09/25 00:16:40;;;;;;;3.30;1.30;;;;;;;11.89;100.00;101945.38;4843062;29;20133;-90
2023/09/25 00:19:06;;;;;;;2.35;1.25;;;;;;;11.85;100.00;101946.78;4843195;29;20034;-90
2023/09/25 00:21:32;;;;;;;4.10;1.30;;;;;;;11.86;100.00;101951.19;4842992;29;20077;-90
2023/09/25 00:23:58;;;;;;;3.13;1.20;;;;;;;11.87;100.00;101949.31;4843087;29;20094;-89
2023/09/25 00:26:23;;;;;;;4.88;1.40;;;;;;;11.84;100.00;101957.88;4842658;29;20042;-89
2023/09/25 00:28:49;;;;;;;3.07;1.27;;;;;;;11.80;100.00;101953.88;4842887;29;20032;-90
2023/09/25 00:31:16;;;;;;;2.53;1.23;;;;;;;11.77;100.00;101955.94;4842990;29;20041;-90
2023/09/25 00:33:43;;;;;;;3.15;1.23;;;;;;;11.74;100.00;101945.47;4827052;29;20054;-90
2023/09/25 00:36:09;;;;;;;4.17;1.27;;;;;;;11.75;100.00;101951.72;4842507;29;20030;-90
2023/09/25 00:38:37;;;;;;;2.67;1.20;;;;;;;11.70;100.00;101949.59;4842744;29;20125;-90
2023/09/25 00:41:05;;;;;;;4.07;1.38;;;;;;;11.67;100.00;101954.59;4842677;29;20467;-90
2023/09/25 00:43:36;;;;;;;3.83;1.40;;;;;;;11.69;100.00;101960.66;4843872;29;20042;-90
2023/09/25 00:46:02;;;;;;;2.13;1.25;;;;;;;11.64;100.00;101957.72;4843147;29;20038;-90
2023/09/25 00:48:42;;;;;;;4.63;1.33;;;;;;;11.64;100.00;101946.84;4843874;29;20519;-90
2023/09/25 00:51:10;;;;;;;3.20;1.27;;;;;;;11.60;100.00;101954.53;4842772;29;20066;-90
2023/09/25 00:53:40;;;;;;;2.77;1.30;;;;;;;11.57;100.00;101958.50;4842661;29;20038;-90
2023/09/25 00:56:09;;;;;;;3.72;1.30;;;;;;;11.57;100.00;101960.34;4842394;29;20474;-90
2023/09/25 00:58:37;;;;;;;4.70;1.48;;;;;;;11.53;100.00;101959.91;4841695;29;20045;-90
2023/09/25 01:01:02;;;;;;;3.33;1.30;;;;;;;11.52;100.00;101957.41;4842168;29;20044;-89
2023/09/25 01:03:30;;;;;;;4.30;1.50;;;;;;;11.52;100.00;101954.69;4842020;29;20042;-90
2023/09/25 01:05:56;;;;;;;2.40;1.40;;;;;;;11.53;100.00;101956.34;4841653;29;20072;-90
2023/09/25 01:08:30;;;;;;;4.83;1.43;;;;;;;11.49;100.00;101965.94;4843364;29;20026;-90
2023/09/25 01:10:58;;;;;;;2.88;1.52;;;;;;;11.44;100.00;101962.94;4842088;29;20042;-89
2023/09/25 01:13:31;;;;;;;2.78;1.50;;;;;;;11.43;100.00;101967.56;4827006;29;20046;-90
2023/09/25 01:16:05;;;;;;;2.92;1.27;;;;;;;11.39;100.00;101964.38;4827675;29;20042;-90
2023/09/25 01:18:31;;;;;;;3.20;1.30;;;;;;;11.36;100.00;101966.66;4841768;29;20049;-90
2023/09/25 01:20:57;;;;;;;6.70;1.97;;;;;;;11.31;100.00;101961.78;4842098;29;20038;-90
2023/09/25 01:23:25;;;;;;;2.45;1.50;;;;;;;11.32;100.00;101958.03;4842195;29;20109;-90
2023/09/25 01:25:50;;;;;;;3.03;1.37;;;;;;;11.30;100.00;101951.94;4843347;29;20105;-90
2023/09/25 01:28:16;;;;;;;4.03;1.88;;;;;;;11.28;100.00;101943.16;4842236;29;20094;-89
2023/09/25 01:30:44;;;;;;;3.93;1.40;;;;;;;11.26;100.00;101950.66;4841792;29;20030;-90
2023/09/25 01:33:12;;;;;;;4.05;1.30;;;;;;;11.26;100.00;101956.09;4841669;29;20117;-89
2023/09/25 01:35:42;;;;;;;3.58;1.48;;;;;;;11.22;100.00;101949.38;4841815;29;20042;-89
2023/09/25 01:38:10;;;;;;;5.07;1.50;;;;;;;11.22;100.00;101946.66;4841513;29;20483;-90
2023/09/25 01:40:36;;;;;;;3.65;1.50;;;;;;;11.20;100.00;101946.81;4827083;29;20451;-90
2023/09/25 01:43:02;;;;;;;3.63;1.33;;;;;;;11.23;100.00;101953.75;4841099;29;20073;-90
2023/09/25 01:45:30;;;;;;;4.97;1.50;;;;;;;11.21;100.00;101944.97;4826897;29;20034;-89
2023/09/25 01:50:43;;;;;;;2.42;1.52;;;;;;;11.16;100.00;101944.69;4842869;29;20042;-89
2023/09/25 01:53:11;;;;;;;3.35;1.67;;;;;;;11.12;100.00;101949.69;4846115;29;20049;-90
2023/09/25 01:55:40;;;;;;;5.70;1.52;;;;;;;11.12;100.00;101954.28;4847570;29;20041;-89
2023/09/25 01:58:09;;;;;;;2.73;1.40;;;;;;;11.09;100.00;101949.19;4847645;29;20033;-90
2023/09/25 02:00:37;;;;;;;3.03;1.67;;;;;;;11.10;100.00;101946.31;4832288;29;20041;-90
2023/09/25 02:03:12;;;;;;;2.65;1.52;;;;;;;11.08;100.00;101940.22;4849003;29;20030;-91
2023/09/25 02:05:48;;;;;;;3.45;1.60;;;;;;;11.09;100.00;101947.34;4847763;29;20041;-89
2023/09/25 02:08:22;;;;;;;3.95;1.73;;;;;;;11.08;100.00;101942.94;4847907;29;20082;-90
2023/09/25 02:10:49;;;;;;;3.03;1.47;;;;;;;11.08;100.00;101942.09;4847781;29;20040;-90
2023/09/25 02:13:17;;;;;;;2.60;1.70;;;;;;;11.06;100.00;101945.03;4847284;29;20090;-90
2023/09/25 02:15:43;;;;;;;4.28;1.58;;;;;;;11.02;100.00;101946.44;4847748;29;20066;-89
2023/09/25 02:18:11;;;;;;;2.57;1.37;;;;;;;11.04;100.00;101942.50;4848989;29;20139;-89
2023/09/25 02:20:39;;;;;;;3.08;1.60;;;;;;;11.01;100.00;101937.44;4847776;29;20029;-90
2023/09/25 02:23:19;;;;;;;4.35;1.63;;;;;;;11.01;100.00;101933.88;4847284;29;20038;-89
2023/09/25 02:25:45;;;;;;;3.92;1.67;;;;;;;11.01;100.00;101934.72;4819786;29;20502;-89
2023/09/25 02:28:13;;;;;;;3.97;1.67;;;;;;;11.02;100.00;101936.41;4832167;29;20034;-90
2023/09/25 02:30:41;;;;;;;3.65;1.77;;;;;;;10.98;100.00;101936.97;4832056;29;20042;-89
2023/09/25 02:33:09;;;;;;;4.28;1.70;;;;;;;10.99;100.00;101944.09;4847607;29;20033;-90
2023/09/25 02:35:37;;;;;;;3.92;2.03;;;;;;;10.96;100.00;101939.88;4817564;29;20078;-90
2023/09/25 02:38:08;;;;;;;4.80;1.90;;;;;;;10.97;100.00;101938.84;4846989;29;20174;-90
2023/09/25 02:40:36;;;;;;;3.78;1.70;;;;;;;10.99;100.00;101946.81;4832592;29;20049;-89
2023/09/25 02:43:11;;;;;;;3.92;1.80;;;;;;;10.98;100.00;101939.69;4847596;29;20135;-89
2023/09/25 02:45:39;;;;;;;3.30;1.40;;;;;;;11.01;100.00;101939.31;4848087;29;20132;-89
2023/09/25 02:48:15;;;;;;;3.47;1.80;;;;;;;11.02;100.00;101943.72;4847877;29;20033;-89
2023/09/25 02:50:42;;;;;;;2.95;1.60;;;;;;;10.99;100.00;101935.94;4832297;29;20061;-90
2023/09/25 02:53:15;;;;;;;3.60;1.42;;;;;;;10.97;100.00;101941.56;4832290;29;20162;-90
2023/09/25 02:55:41;;;;;;;4.55;1.88;;;;;;;10.98;100.00;101936.97;4847816;29;20042;-90
2023/09/25 02:58:09;;;;;;;4.90;1.50;;;;;;;10.97;100.00;101932.56;4848168;29;20038;-90
2023/09/25 03:00:39;;;;;;;3.78;1.67;;;;;;;10.95;100.00;101935.47;4849074;29;20471;-89
2023/09/25 03:03:09;;;;;;;4.37;1.40;;;;;;;10.94;100.00;101925.66;4846477;29;20034;-89
2023/09/25 03:05:34;;;;;;;3.70;1.33;;;;;;;10.94;100.00;101927.53;4829020;29;20090;-90
2023/09/25 03:08:03;;;;;;;2.70;1.60;;;;;;;10.91;100.00;101931.47;4843520;29;20448;-90
2023/09/25 03:10:33;;;;;;;4.28;1.75;;;;;;;10.90;100.00;101935.22;4844872;29;20575;-90
2023/09/25 03:12:58;;;;;;;3.10;1.50;;;;;;;10.86;100.00;101937.47;4844182;29;20053;-90
2023/09/25 03:15:24;;;;;;;3.57;1.80;;;;;;;10.86;100.00;101933.91;4844254;29;20034;-90
2023/09/25 03:17:49;;;;;;;4.00;1.92;;;;;;;10.84;100.00;101931.41;4844171;29;20057;-90
2023/09/25 03:20:21;;;;;;;4.60;1.70;;;;;;;10.87;100.00;101939.16;4844193;29;20072;-89
2023/09/25 03:22:46;;;;;;;4.53;1.60;;;;;;;10.87;100.00;101939.16;4844937;29;20548;-90
2023/09/25 03:25:13;;;;;;;5.07;1.80;;;;;;;10.85;100.00;101935.81;4843917;29;20124;-90
2023/09/25 03:27:43;;;;;;;4.43;1.95;;;;;;;10.88;100.00;101932.69;4844664;29;20048;-90
2023/09/25 03:30:12;;;;;;;2.92;1.38;;;;;;;10.86;100.00;101936.63;4829207;29;20080;-90
2023/09/25 03:32:41;;;;;;;2.63;1.50;;;;;;;10.87;100.00;101935.59;4843882;29;20060;-91
2023/09/25 03:35:10;;;;;;;4.03;1.77;;;;;;;10.86;100.00;101937.47;4843868;29;20034;-90
2023/09/25 03:37:36;;;;;;;3.78;1.70;;;;;;;10.86;100.00;101939.34;4844766;29;20129;-90
2023/09/25 03:40:07;;;;;;;2.67;1.40;;;;;;;10.86;100.00;101932.03;4843637;29;20116;-89
2023/09/25 03:42:36;;;;;;;5.50;2.00;;;;;;;10.87;100.00;101932.91;4843526;29;20041;-90
2023/09/25 03:45:01;;;;;;;3.75;1.90;;;;;;;10.85;100.00;101927.66;4843502;29;20037;-90
2023/09/25 03:47:27;;;;;;;2.43;1.57;;;;;;;10.91;100.00;101938.75;4843326;29;20034;-89
2023/09/25 03:49:52;;;;;;;3.70;1.90;;;;;;;10.89;100.00;101933.53;4827934;29;20044;-90
2023/09/25 03:52:18;;;;;;;3.50;1.73;;;;;;;10.87;100.00;101932.91;4843012;29;20102;-90
2023/09/25 03:54:45;;;;;;;3.80;1.57;;;;;;;10.88;100.00;101935.41;4843436;29;20748;-91
2023/09/25 03:57:23;;;;;;;;;;;;;;;;;;;;;
2023/09/25 03:59:55;;;;;;;6.20;2.00;;;;;;;10.88;100.00;101942.72;4844501;29;20480;-90
2023/09/25 04:02:20;;;;;;;3.05;1.80;;;;;;;10.87;100.00;101936.44;4844638;29;20052;-90
2023/09/25 04:04:48;;;;;;;4.20;1.60;;;;;;;10.91;100.00;101941.47;4843111;29;20476;-90
2023/09/25 04:07:13;;;;;;;6.10;1.70;;;;;;;10.89;100.00;101949.81;4842487;29;20062;-90
2023/09/25 04:09:39;;;;;;;3.53;2.00;;;;;;;10.92;100.00;101940.47;4843268;29;20528;-90
2023/09/25 04:12:05;;;;;;;6.43;1.70;;;;;;;10.93;100.00;101950.31;4843661;29;20069;-89
2023/09/25 04:14:32;;;;;;;3.55;1.67;;;;;;;10.93;100.00;101947.59;4842581;29;20469;-89
2023/09/25 04:17:01;;;;;;;6.73;1.63;;;;;;;10.92;100.00;101951.31;4842974;29;20033;-90
2023/09/25 04:19:30;;;;;;;4.43;2.00;;;;;;;10.94;100.00;101949.25;4844285;29;20116;-90
2023/09/25 04:22:11;;;;;;;4.53;1.65;;;;;;;10.98;100.00;101951.38;4842720;29;20041;-90
2023/09/25 04:24:47;;;;;;;;;;;;;;;;;;;;;
2023/09/25 04:27:15;;;;;;;5.65;1.80;;;;;;;10.99;100.00;101946.81;4844821;29;20040;-89
2023/09/25 04:29:43;;;;;;;4.47;1.73;;;;;;;11.01;100.00;101945.59;4827693;29;20034;-89
2023/09/25 04:32:17;;;;;;;5.47;1.58;;;;;;;11.02;100.00;101952.69;4842787;29;20102;-90
2023/09/25 04:34:43;;;;;;;4.35;1.55;;;;;;;11.03;100.00;101945.41;4844196;29;20062;-90
2023/09/25 04:37:16;;;;;;;2.55;1.63;;;;;;;11.05;100.00;101946.03;4842167;29;20088;-90
2023/09/25 04:39:42;;;;;;;7.85;2.00;;;;;;;11.06;100.00;101948.56;4842612;29;20030;-90
2023/09/25 04:42:17;;;;;;;6.07;1.77;;;;;;;11.08;100.00;101959.22;4842576;29;20034;-89
2023/09/25 04:44:43;;;;;;;7.10;2.08;;;;;;;11.10;100.00;101953.59;4842797;29;20506;-90
2023/09/25 04:47:11;;;;;;;3.73;1.77;;;;;;;11.10;100.00;101956.31;4843281;29;20042;-89
2023/09/25 04:49:40;;;;;;;3.67;1.70;;;;;;;11.10;100.00;101959.91;4827443;29;20038;-90
2023/09/25 04:52:10;;;;;;;4.00;1.92;;;;;;;11.13;100.00;101954.09;4842167;29;20117;-90
2023/09/25 04:54:39;;;;;;;5.38;1.80;;;;;;;11.13;100.00;101956.81;4827738;29;20129;-90
2023/09/25 04:57:08;;;;;;;4.72;1.80;;;;;;;11.16;100.00;101955.56;4828664;29;20056;-90
2023/09/25 04:59:41;;;;;;;4.20;1.60;;;;;;;11.17;100.00;101958.06;4843667;29;20037;-90
2023/09/25 05:02:10;;;;;;;4.65;1.92;;;;;;;11.21;100.00;101953.94;4842981;29;20044;-90
2023/09/25 05:04:39;;;;;;;4.93;1.80;;;;;;;11.22;99.94;101957.53;4842001;29;20041;-90
2023/09/25 05:07:07;;;;;;;3.80;1.83;;;;;;;11.21;100.00;101955.84;4842090;29;20062;-90
2023/09/25 05:09:34;;;;;;;4.97;2.00;;;;;;;11.17;100.00;101958.06;4842402;29;20098;-90
2023/09/25 05:12:00;;;;;;;4.85;1.80;;;;;;;11.19;100.00;101966.03;4841873;29;20520;-90
2023/09/25 05:14:35;;;;;;;3.08;2.03;;;;;;;11.13;100.00;101959.50;4826827;29;20042;-89
2023/09/25 05:17:16;;;;;;;4.67;1.90;;;;;;;11.13;100.00;101964.09;4842255;29;20030;-89
2023/09/25 05:19:41;;;;;;;6.75;2.17;;;;;;;11.11;100.00;101972.44;4841920;29;20030;-90
2023/09/25 05:22:11;;;;;;;2.90;1.67;;;;;;;11.11;100.00;101974.31;4841915;29;20387;-89
2023/09/25 05:24:46;;;;;;;5.38;1.58;;;;;;;11.15;99.69;101967.47;4842081;29;20041;-89
2023/09/25 05:27:21;;;;;;;4.25;1.70;;;;;;;11.13;100.00;101970.38;4826678;29;20467;-89
2023/09/25 05:29:46;;;;;;;5.97;1.75;;;;;;;11.15;100.00;101978.34;4841991;29;20057;-90
2023/09/25 05:32:19;;;;;;;3.70;1.70;;;;;;;11.15;100.00;101979.16;4842774;29;20041;-89
2023/09/25 05:34:52;;;;;;;3.42;1.70;;;;;;;11.18;100.00;101978.78;4827120;29;20099;-91
2023/09/25 05:37:36;;;;;;;;;;;;;;;;;;;;;
2023/09/25 05:40:11;;;;;;;5.20;1.60;;;;;;;11.27;99.29;101975.97;4843267;29;20049;-90
2023/09/25 05:42:45;;;;;;;4.53;1.60;;;;;;;11.30;99.39;101979.13;4841874;29;20040;-90
2023/09/25 05:45:14;;;;;;;3.80;1.63;;;;;;;11.29;99.02;101977.44;4841421;29;20098;-92
2023/09/25 05:47:40;;;;;;;4.47;1.60;;;;;;;11.29;98.67;101982.03;4842500;29;20086;-88
2023/09/25 05:50:09;;;;;;;3.85;1.70;;;;;;;11.36;98.18;101988.38;4841325;29;20034;-89
2023/09/25 05:52:46;;;;;;;;;;;;;;;;;;;;;
2023/09/25 05:55:21;;;;;;;3.08;1.55;;;;;;;11.39;97.59;101966.25;4843014;29;20042;-90
2023/09/25 05:57:52;;;;;;;3.85;1.60;;;;;;;11.45;97.63;101973.63;4841452;29;20106;-89
2023/09/25 06:00:18;;;;;;;3.55;1.65;;;;;;;11.47;97.96;101974.28;4842708;29;20045;-90
2023/09/25 06:02:44;;;;;;;4.50;1.93;;;;;;;11.49;97.46;101969.50;4842784;29;20034;-89
2023/09/25 06:08:00;;;;;;;3.30;1.60;;;;;;;11.59;96.56;101986.31;4831919;29;20137;-90
2023/09/25 06:10:25;;;;;;;3.97;1.90;;;;;;;11.62;96.30;101982.38;4841412;29;20137;-90
2023/09/25 06:13:00;;;;;;;;;;;;;;;;;;;;;
2023/09/25 06:15:30;;;;;;;4.07;1.63;;;;;;;11.80;96.53;101997.38;4842301;29;20034;-90
2023/09/25 06:17:58;;;;;;;2.97;1.50;;;;;;;11.88;96.07;101987.19;4841228;29;20120;-89
2023/09/25 06:20:26;;;;;;;5.45;1.40;;;;;;;11.96;95.34;101980.81;4841145;29;20042;-89
2023/09/25 06:22:54;;;;;;;4.32;1.80;;;;;;;12.00;94.97;101984.84;4841222;29;20072;-88
2023/09/25 06:25:29;;;;;;;6.18;1.80;;;;;;;12.06;93.97;101981.31;4842728;29;20038;-89
2023/09/25 06:27:57;;;;;;;5.30;1.93;;;;;;;12.13;93.41;101985.97;4842219;29;20030;-90
2023/09/25 06:30:27;;;;;;;4.53;2.10;;;;;;;12.20;93.06;101990.41;4841037;29;20042;-89
2023/09/25 06:32:55;;;;;;;4.75;1.58;;;;;;;12.29;94.14;101980.22;4841531;29;20448;-89
2023/09/25 06:35:21;;;;;;;3.55;1.70;;;;;;;12.36;92.84;101989.28;4841118;29;20110;-88
2023/09/25 06:37:47;;;;;;;4.50;1.73;;;;;;;12.46;91.37;101995.19;4840757;29;20040;-89
2023/09/25 06:40:15;;;;;;;3.80;1.90;;;;;;;12.56;91.65;101985.81;4844215;29;20391;-89
2023/09/25 06:42:41;;;;;;;3.20;1.70;;;;;;;12.62;91.37;101983.16;4844674;29;20041;-89
2023/09/25 06:45:13;;;;;;;2.72;1.55;;;;;;;12.71;90.54;101986.53;4844829;29;20056;-89
2023/09/25 06:47:39;;;;;;;3.47;1.90;;;;;;;12.75;89.96;101984.25;4845360;29;20063;-89
2023/09/25 06:50:05;;;;;;;2.77;1.80;;;;;;;12.82;89.52;101996.00;4845177;29;20037;-89
2023/09/25 06:52:31;;;;;;;3.35;1.77;;;;;;;12.91;89.03;101991.25;4845324;29;20045;-88
2023/09/25 06:54:59;;;;;;;5.53;1.80;;;;;;;12.93;89.61;101995.44;4828686;29;20034;-89
2023/09/25 06:57:25;;;;;;;5.30;1.70;;;;;;;13.04;89.04;101985.84;4844486;29;20133;-89
2023/09/25 06:59:53;;;;;;;6.13;1.73;;;;;;;13.15;87.78;101990.72;4828542;29;20133;-89
2023/09/25 07:02:18;;;;;;;2.85;1.60;;;;;;;13.25;87.53;101986.75;4828793;29;20128;-89
2023/09/25 07:04:46;;;;;;;3.17;1.47;;;;;;;13.34;86.39;101990.97;4843873;29;20559;-89
2023/09/25 07:07:14;;;;;;;3.33;1.42;;;;;;;13.44;86.13;101985.16;4843458;29;20053;-89
2023/09/25 07:09:40;;;;;;;3.35;1.83;;;;;;;13.58;85.34;101992.31;4843950;29;20380;-90
2023/09/25 07:12:12;;;;;;;3.78;1.35;;;;;;;13.65;85.86;101987.69;4846699;29;20041;-89
2023/09/25 07:14:48;;;;;;;4.33;1.53;;;;;;;13.77;83.90;101987.06;4836276;29;20479;-89
2023/09/25 07:17:23;;;;;;;3.22;1.75;;;;;;;13.88;83.91;101985.59;4843844;29;20030;-89
2023/09/25 07:19:53;;;;;;;3.15;1.65;;;;;;;13.99;82.73;101993.97;4844123;29;20038;-89
2023/09/25 07:22:30;;;;;;;3.97;1.50;;;;;;;14.12;82.62;101990.41;4845441;29;20038;-90
2023/09/25 07:24:58;;;;;;;4.03;1.50;;;;;;;14.22;80.83;101995.47;4844154;29;20048;-90
2023/09/25 07:27:35;;;;;;;2.80;1.47;;;;;;;14.28;81.85;101988.31;4829169;29;20123;-90
2023/09/25 07:30:10;;;;;;;2.40;1.65;;;;;;;14.35;79.94;101987.25;4843780;29;20432;-95
2023/09/25 07:32:37;;;;;;;2.97;1.23;;;;;;;14.47;80.09;101989.34;4844769;29;20396;-92
2023/09/25 07:35:09;;;;;;;3.55;1.42;;;;;;;14.55;79.58;101984.44;4829865;29;20050;-92
2023/09/25 07:37:41;;;;;;;3.05;1.50;;;;;;;14.61;78.55;101990.13;4845463;29;20078;-90
2023/09/25 07:40:11;;;;;;;2.83;1.43;;;;;;;14.66;78.21;101985.72;4844956;29;20033;-90
2023/09/25 07:42:38;;;;;;;4.95;1.50;;;;;;;14.74;76.57;101990.94;4843705;29;20121;-90
2023/09/25 07:45:22;;;;;;;;;;;;;;;;;;;;;
2023/09/25 07:47:57;;;;;;;2.30;1.55;;;;;;;14.90;77.58;101989.63;4826145;29;20038;-90
2023/09/25 07:50:28;;;;;;;3.67;1.70;;;;;;;14.99;76.38;101989.41;4825310;29;20407;-91
2023/09/25 07:52:56;;;;;;;3.03;1.47;;;;;;;15.08;76.73;101980.72;4825284;29;20034;-91
2023/09/25 07:55:30;;;;;;;2.42;1.20;;;;;;;15.17;76.73;101981.28;4810410;29;20111;-90
2023/09/25 07:57:56;;;;;;;2.63;1.50;;;;;;;15.22;75.51;101988.84;4824860;29;20041;-89
2023/09/25 08:00:36;;;;;;;2.80;1.05;;;;;;;15.32;76.26;101983.72;4825076;29;20117;-89
2023/09/25 08:03:07;;;;;;;6.07;1.27;;;;;;;15.41;75.84;101987.91;4827277;29;20058;-92
2023/09/25 08:05:35;;;;;;;4.33;1.40;;;;;;;15.49;73.91;101996.91;4839351;29;20050;-91
2023/09/25 08:08:20;;;;;;;3.65;1.42;;;;;;;15.53;74.51;101993.50;4824763;29;20137;-92
2023/09/25 08:10:54;;;;;;;5.82;1.67;;;;;;;15.60;74.28;101993.44;4825873;29;20050;-92
2023/09/25 08:13:25;;;;;;;4.50;1.38;;;;;;;15.58;73.24;101990.94;4834888;29;20057;-91
2023/09/25 08:15:51;;;;;;;5.05;1.70;;;;;;;15.58;74.31;101985.47;4843409;29;20034;-92
2023/09/25 08:18:18;;;;;;;4.27;1.40;;;;;;;15.63;74.22;101983.97;4842222;29;20121;-91
2023/09/25 08:20:45;;;;;;;4.15;1.42;;;;;;;15.69;73.48;101992.09;4826587;29;20046;-92
2023/09/25 08:23:15;;;;;;;5.28;1.65;;;;;;;15.66;73.61;101989.00;4843608;29;20434;-93
2023/09/25 08:26:07;;;;;;;4.13;1.92;;;;;;;15.65;74.22;101993.63;4810185;29;20080;-93
2023/09/25 08:28:44;;;;;;;3.63;1.60;;;;;;;15.68;73.76;101993.19;4823245;29;20125;-92
2023/09/25 08:31:15;;;;;;;4.38;1.80;;;;;;;15.70;73.74;101996.53;4828052;29;20045;-92
2023/09/25 08:33:48;;;;;;;2.42;1.13;;;;;;;15.77;74.74;101991.84;4842026;29;20132;-92
2023/09/25 08:36:19;;;;;;;3.25;1.73;;;;;;;15.88;74.00;101984.00;4807973;29;20052;-92
2023/09/25 08:38:47;;;;;;;7.57;1.80;;;;;;;15.90;74.12;101977.25;4824610;29;20113;-92
2023/09/25 08:41:16;;;;;;;3.67;1.80;;;;;;;16.04;73.44;101980.72;4825074;29;20030;-92
2023/09/25 08:43:44;;;;;;;3.72;1.45;;;;;;;16.18;72.14;101981.44;4826074;29;20035;-94
2023/09/25 08:46:21;;;;;;;3.38;1.50;;;;;;;16.30;73.62;101979.63;4853910;29;20034;-92
2023/09/25 08:49:04;;;;;;;1.95;1.35;;;;;;;16.39;73.07;101974.69;4825820;29;20042;-93
2023/09/25 08:51:40;;;;;;;4.97;1.65;;;;;;;16.45;70.83;101967.47;4825000;29;20034;-92
2023/09/25 08:54:12;;;;;;;3.13;1.70;;;;;;;16.56;71.04;101972.16;4824893;29;20503;-92
2023/09/25 08:56:43;;;;;;;4.28;1.42;;;;;;;16.72;70.89;101972.66;4840163;29;20046;-93
2023/09/25 08:59:11;;;;;;;3.80;1.70;;;;;;;16.73;69.78;101966.94;4842957;29;20033;-93
2023/09/25 09:01:37;;;;;;;3.75;1.50;;;;;;;16.77;70.57;101961.81;4843065;29;20057;-93
2023/09/25 09:04:12;;;;;;;5.72;1.48;;;;;;;16.87;69.97;101961.28;4841676;29;20072;-91
2023/09/25 09:06:37;;;;;;;3.00;1.57;;;;;;;17.07;70.56;101972.84;4840422;29;20062;-90
2023/09/25 09:09:07;;;;;;;2.50;1.30;;;;;;;17.27;68.46;101963.50;4842276;29;20037;-90
2023/09/25 09:11:35;;;;;;;3.88;1.50;;;;;;;17.34;67.70;101965.06;4841710;29;20044;-90
2023/09/25 09:14:01;;;;;;;3.28;1.50;;;;;;;17.47;67.68;101971.44;4842375;29;20045;-91
2023/09/25 09:16:37;;;;;;;;;;;;;;;;;;;;;
2023/09/25 09:19:07;;;;;;;3.78;1.73;;;;;;;17.48;67.11;101965.72;4843437;29;20034;-91
2023/09/25 09:21:35;;;;;;;3.50;1.50;;;;;;;17.52;67.77;101963.34;4841952;29;20038;-91
2023/09/25 09:24:07;;;;;;;4.93;1.70;;;;;;;17.52;67.27;101972.44;4827189;29;20046;-91
2023/09/25 09:26:37;;;;;;;3.95;1.58;;;;;;;17.51;67.97;101968.00;4842231;29;20045;-91
2023/09/25 09:29:19;;;;;;;3.40;1.53;;;;;;;17.57;67.20;101970.84;4842038;29;20158;-91
2023/09/25 09:31:49;;;;;;;4.50;1.50;;;;;;;17.62;67.31;101971.00;4841292;29;20038;-91
2023/09/25 09:34:21;;;;;;;6.45;1.55;;;;;;;17.74;67.74;101971.03;4841855;29;20090;-91
2023/09/25 09:36:55;;;;;;;3.83;1.85;;;;;;;17.78;67.44;101962.09;4841347;29;20026;-91
2023/09/25 09:39:34;;;;;;;4.88;1.55;;;;;;;17.97;68.04;101962.84;4826742;29;20053;-91
2023/09/25 09:42:09;;;;;;;4.40;1.50;;;;;;;18.22;67.40;101973.59;4841994;29;20078;-91
2023/09/25 09:44:50;;;;;;;3.65;1.83;;;;;;;18.54;67.30;101975.09;4842006;29;20559;-91
2023/09/25 09:47:20;;;;;;;3.10;1.60;;;;;;;18.50;64.96;101973.91;4826848;29;20121;-91
2023/09/25 09:49:49;;;;;;;4.63;1.70;;;;;;;18.53;66.43;101978.97;4841989;29;20038;-91
2023/09/25 09:52:19;;;;;;;4.93;1.45;;;;;;;18.71;65.34;101981.53;4841655;29;20049;-91
2023/09/25 09:54:47;;;;;;;4.27;1.70;;;;;;;18.97;65.00;101982.09;4842749;29;20042;-91
2023/09/25 09:57:14;;;;;;;3.47;1.70;;;;;;;19.09;64.19;101982.06;4841778;29;20037;-91
2023/09/25 09:59:49;;;;;;;6.00;1.50;;;;;;;19.22;64.39;101976.25;4841453;29;20038;-91
2023/09/25 10:02:21;;;;;;;2.17;1.50;;;;;;;19.51;64.57;101978.97;4827797;29;20045;-92
2023/09/25 10:04:47;;;;;;;4.47;2.05;;;;;;;19.37;62.04;101981.22;4841516;29;20064;-91
2023/09/25 10:07:17;;;;;;;3.27;1.57;;;;;;;19.17;63.38;101994.59;4841145;29;20492;-91
2023/09/25 10:09:57;;;;;;;2.50;1.50;;;;;;;19.11;64.36;101982.63;4811886;29;20042;-91
2023/09/25 10:12:48;;;;;;;2.67;1.35;;;;;;;19.17;64.77;101989.06;4841569;29;20098;-91
2023/09/25 10:15:23;;;;;;;2.78;1.23;;;;;;;19.37;63.32;101983.09;4845106;29;20493;-91
2023/09/25 10:17:56;;;;;;;3.77;1.30;;;;;;;19.74;64.50;101980.75;4846409;29;20543;-91
2023/09/25 10:20:45;;;;;;;2.67;1.42;;;;;;;20.03;62.93;101980.69;4845336;29;20121;-91
2023/09/25 10:23:30;;;;;;;2.88;1.27;;;;;;;20.19;61.57;101970.72;4845202;29;20086;-91
2023/09/25 10:26:05;;;;;;;3.55;1.60;;;;;;;20.15;58.00;101969.56;4845141;29;20025;-92
2023/09/25 10:28:36;;;;;;;2.78;1.48;;;;;;;20.31;57.99;101977.00;4845760;29;20359;-92
2023/09/25 10:31:31;;;;;;;3.80;1.20;;;;;;;20.45;58.27;101982.13;4845220;29;20117;-91
2023/09/25 10:33:59;;;;;;;2.90;1.48;;;;;;;20.60;56.83;101981.50;4845072;29;20026;-91
2023/09/25 10:36:42;;;;;;;5.57;1.42;;;;;;;20.80;57.69;101983.72;4844838;29;20030;-91
2023/09/25 10:39:16;;;;;;;2.97;1.30;;;;;;;20.87;55.03;101980.75;4846037;29;20490;-91
2023/09/25 10:42:08;;;;;;;3.70;1.50;;;;;;;20.90;55.96;101981.06;4844920;29;20034;-91
2023/09/25 10:44:44;;;;;;;3.63;1.30;;;;;;;21.19;56.55;101981.69;4839904;29;20045;-91
2023/09/25 10:47:11;;;;;;;2.40;1.17;;;;;;;21.53;54.53;101964.94;4830127;29;20061;-91
2023/09/25 10:49:40;;;;;;;2.72;1.20;;;;;;;21.72;52.45;101961.78;4829237;29;20121;-91
2023/09/25 10:52:16;;;;;;;2.25;1.30;;;;;;;21.85;53.77;101972.38;4845872;29;20060;-91
2023/09/25 10:54:44;;;;;;;2.92;1.27;;;;;;;22.05;52.24;101959.81;4845002;29;20041;-91
2023/09/25 10:57:10;;;;;;;3.23;1.50;;;;;;;22.20;52.28;101967.38;4829355;29;20122;-91
2023/09/25 10:59:38;;;;;;;3.70;1.60;;;;;;;22.38;51.80;101963.34;4844521;29;20087;-91
2023/09/25 11:02:04;;;;;;;2.78;1.70;;;;;;;22.70;51.44;101968.75;4844596;29;20128;-92
2023/09/25 11:04:29;;;;;;;3.27;1.50;;;;;;;23.10;50.19;101980.28;4845576;29;20165;-92
2023/09/25 11:06:58;;;;;;;3.37;1.73;;;;;;;23.61;47.93;101982.31;4843811;29;20325;-91
2023/09/25 11:09:41;;;;;;;5.68;1.58;;;;;;;24.31;46.87;101979.75;4843601;29;20392;-92
2023/09/25 11:12:06;;;;;;;5.05;1.60;;;;;;;25.17;44.31;101978.84;4830409;29;20049;-92
2023/09/25 11:14:37;;;;;;;2.43;1.47;;;;;;;25.90;42.95;101980.00;4844349;29;20038;-92
2023/09/25 11:17:03;;;;;;;2.28;1.40;;;;;;;27.16;40.01;101973.56;4844266;29;20033;-92
2023/09/25 11:22:59;;;;;;;2.08;1.50;;;;;;;28.73;36.51;101975.84;4845472;29;20038;-92
2023/09/25 11:25:37;;;;;;;2.67;1.58;;;;;;;29.29;33.89;101981.31;4843019;29;20183;-92
2023/09/25 11:28:19;;;;;;;4.07;1.77;;;;;;;30.36;33.38;101979.69;4844197;29;20034;-93
2023/09/25 11:30:49;;;;;;;2.78;1.98;;;;;;;30.08;33.79;101969.53;4844156;29;20488;-92
2023/09/25 11:33:29;;;;;;;;;;;;;;;;;;;;;
2023/09/25 11:35:57;;;;;;;4.05;1.70;;;;;;;31.93;30.13;101976.22;4845404;29;20052;-92
2023/09/25 11:38:47;;;;;;;4.50;1.92;;;;;;;31.23;31.87;101977.09;4828278;29;20125;-92
2023/09/25 11:41:12;;;;;;;1.93;1.70;;;;;;;31.66;31.03;101973.47;4844844;29;20485;-90
2023/09/25 11:43:40;;;;;;;3.20;1.83;;;;;;;32.23;29.37;101979.09;4844906;29;20065;-91
2023/09/25 11:46:06;;;;;;;4.65;1.92;;;;;;;33.08;28.19;101978.13;4843540;29;20030;-91
2023/09/25 11:48:43;;;;;;;6.03;2.20;;;;;;;34.02;27.31;101982.38;4843306;29;20025;-90
2023/09/25 11:51:14;;;;;;;3.20;2.20;;;;;;;33.88;26.58;101976.25;4843617;29;20064;-88
2023/09/25 11:53:41;;;;;;;3.85;2.13;;;;;;;33.29;26.54;101974.50;4828583;29;20052;-88
2023/09/25 11:56:26;;;;;;;3.53;2.28;;;;;;;31.83;29.50;101983.84;4828617;29;20088;-89